sensor_id;sensor_type;location;lat;lon;timestamp;pressure;altitude;pressure_sealevel;temperature;humidity
30347;BME280;19047;44.782;20.468;2022-07-29T00:02:55;100693.38;;;26.48;44.73
30347;BME280;19047;44.782;20.468;2022-07-29T00:06:25;100690.78;;;26.45;44.81
30347;BME280;19047;44.782;20.468;2022-07-29T00:09:42;100696.78;;;26.41;45.00
30347;BME280;19047;44.782;20.468;2022-07-29T00:13:12;100693.94;;;26.36;45.16
30347;BME280;19047;44.782;20.468;2022-07-29T00:16:29;100687.13;;;26.33;45.33
30347;BME280;19047;44.782;20.468;2022-07-29T00:19:59;100693.13;;;26.30;45.60
30347;BME280;19047;44.782;20.468;2022-07-29T00:23:16;100699.91;;;26.27;45.60
30347;BME280;19047;44.782;20.468;2022-07-29T00:26:46;100652.72;;;26.00;45.74
30347;BME280;19047;44.782;20.468;2022-07-29T00:30:04;100688.16;;;26.19;45.84
30347;BME280;19047;44.782;20.468;2022-07-29T00:33:35;100688.44;;;26.15;45.97
30347;BME280;19047;44.782;20.468;2022-07-29T00:36:52;100682.97;;;26.12;45.95
30347;BME280;19047;44.782;20.468;2022-07-29T00:40:23;100672.53;;;26.09;46.09
30347;BME280;19047;44.782;20.468;2022-07-29T00:43:40;100660.56;;;26.05;46.24
30347;BME280;19047;44.782;20.468;2022-07-29T00:47:10;100668.63;;;26.01;46.52
30347;BME280;19047;44.782;20.468;2022-07-29T00:50:27;100667.59;;;25.98;46.57
30347;BME280;19047;44.782;20.468;2022-07-29T00:53:58;100675.69;;;25.94;46.91
30347;BME280;19047;44.782;20.468;2022-07-29T00:57:15;100667.34;;;25.91;47.00
30347;BME280;19047;44.782;20.468;2022-07-29T01:00:45;100660.28;;;25.86;47.11
30347;BME280;19047;44.782;20.468;2022-07-29T01:04:02;100669.16;;;25.83;47.18
30347;BME280;19047;44.782;20.468;2022-07-29T01:07:34;100667.06;;;25.77;47.43
30347;BME280;19047;44.782;20.468;2022-07-29T01:10:51;100667.06;;;25.72;47.48
30347;BME280;19047;44.782;20.468;2022-07-29T01:14:22;100650.91;;;25.69;47.68
30347;BME280;19047;44.782;20.468;2022-07-29T01:17:45;100647.00;;;25.66;47.87
30347;BME280;19047;44.782;20.468;2022-07-29T01:22:07;100643.63;;;25.62;47.81
30347;BME280;19047;44.782;20.468;2022-07-29T01:32:08;100641.22;;;25.50;47.86
30347;BME280;19047;44.782;20.468;2022-07-29T01:35:39;100635.75;;;25.46;47.81
30347;BME280;19047;44.782;20.468;2022-07-29T01:39:04;100641.22;;;25.44;47.55
30347;BME280;19047;44.782;20.468;2022-07-29T01:42:36;100622.44;;;25.32;47.60
30347;BME280;19047;44.782;20.468;2022-07-29T01:45:58;100639.13;;;25.39;47.65
30347;BME280;19047;44.782;20.468;2022-07-29T01:49:31;100614.84;;;25.12;47.58
30347;BME280;19047;44.782;20.468;2022-07-29T01:53:01;100645.91;;;25.36;47.41
30347;BME280;19047;44.782;20.468;2022-07-29T01:56:32;100639.91;;;25.34;47.47
30347;BME280;19047;44.782;20.468;2022-07-29T01:59:51;100646.91;;;25.33;47.42
30347;BME280;19047;44.782;20.468;2022-07-29T02:03:28;100645.91;;;25.30;47.62
30347;BME280;19047;44.782;20.468;2022-07-29T02:06:46;100617.72;;;25.06;47.47
30347;BME280;19047;44.782;20.468;2022-07-29T02:10:21;100632.59;;;25.27;47.67
30347;BME280;19047;44.782;20.468;2022-07-29T02:13:39;100640.94;;;25.25;47.54
30347;BME280;19047;44.782;20.468;2022-07-29T02:17:12;100638.31;;;25.22;47.64
30347;BME280;19047;44.782;20.468;2022-07-29T02:20:29;100634.66;;;25.21;47.89
30347;BME280;19047;44.782;20.468;2022-07-29T02:23:59;100631.56;;;25.19;47.67
30347;BME280;19047;44.782;20.468;2022-07-29T02:27:17;100630.50;;;25.17;47.74
30347;BME280;19047;44.782;20.468;2022-07-29T02:30:49;100634.94;;;25.18;47.66
30347;BME280;19047;44.782;20.468;2022-07-29T02:34:08;100634.66;;;25.16;47.65
30347;BME280;19047;44.782;20.468;2022-07-29T02:37:38;100633.88;;;25.15;47.68
30347;BME280;19047;44.782;20.468;2022-07-29T02:40:56;100633.59;;;25.13;47.73
30347;BME280;19047;44.782;20.468;2022-07-29T02:44:29;100634.91;;;25.12;47.73
30347;BME280;19047;44.782;20.468;2022-07-29T02:47:47;100633.34;;;25.11;47.87
30347;BME280;19047;44.782;20.468;2022-07-29T02:51:19;100636.19;;;25.11;47.78
30347;BME280;19047;44.782;20.468;2022-07-29T02:54:47;100628.13;;;25.09;47.64
30347;BME280;19047;44.782;20.468;2022-07-29T03:01:57;100638.03;;;25.08;47.55
30347;BME280;19047;44.782;20.468;2022-07-29T03:05:28;100629.44;;;25.08;47.63
30347;BME280;19047;44.782;20.468;2022-07-29T03:08:46;100635.94;;;25.09;47.85
30347;BME280;19047;44.782;20.468;2022-07-29T03:12:17;100595.47;;;24.79;47.91
30347;BME280;19047;44.782;20.468;2022-07-29T03:15:34;100632.31;;;25.08;47.96
30347;BME280;19047;44.782;20.468;2022-07-29T03:19:05;100633.59;;;25.07;48.00
30347;BME280;19047;44.782;20.468;2022-07-29T03:22:22;100642.97;;;25.08;47.96
30347;BME280;19047;44.782;20.468;2022-07-29T03:25:53;100636.47;;;25.07;47.99
30347;BME280;19047;44.782;20.468;2022-07-29T03:29:10;100652.84;;;25.07;47.83
30347;BME280;19047;44.782;20.468;2022-07-29T03:32:40;100657.81;;;25.06;47.85
30347;BME280;19047;44.782;20.468;2022-07-29T03:35:57;100654.16;;;25.06;47.87
30347;BME280;19047;44.782;20.468;2022-07-29T03:39:29;100663.25;;;25.04;47.84
30347;BME280;19047;44.782;20.468;2022-07-29T03:42:47;100667.69;;;25.05;47.95
30347;BME280;19047;44.782;20.468;2022-07-29T03:46:20;100662.75;;;25.06;48.06
30347;BME280;19047;44.782;20.468;2022-07-29T03:49:38;100665.59;;;25.06;47.86
30347;BME280;19047;44.782;20.468;2022-07-29T03:53:09;100676.56;;;25.07;48.03
30347;BME280;19047;44.782;20.468;2022-07-29T03:56:26;100678.91;;;25.09;48.04
30347;BME280;19047;44.782;20.468;2022-07-29T03:59:58;100673.94;;;25.09;48.28
30347;BME280;19047;44.782;20.468;2022-07-29T04:03:16;100678.63;;;25.13;48.21
30347;BME280;19047;44.782;20.468;2022-07-29T04:06:47;100678.41;;;25.16;48.34
30347;BME280;19047;44.782;20.468;2022-07-29T04:10:04;100675.28;;;25.20;48.14
30347;BME280;19047;44.782;20.468;2022-07-29T04:13:35;100682.31;;;25.24;47.86
30347;BME280;19047;44.782;20.468;2022-07-29T04:16:52;100681.56;;;25.29;47.98
30347;BME280;19047;44.782;20.468;2022-07-29T04:20:22;100680.78;;;25.34;48.03
30347;BME280;19047;44.782;20.468;2022-07-29T04:23:39;100687.31;;;25.40;48.05
30347;BME280;19047;44.782;20.468;2022-07-29T04:27:12;100648.47;;;25.17;47.91
30347;BME280;19047;44.782;20.468;2022-07-29T04:30:30;100690.72;;;25.56;47.68
30347;BME280;19047;44.782;20.468;2022-07-29T04:34:01;100696.78;;;25.63;47.66
30347;BME280;19047;44.782;20.468;2022-07-29T04:37:18;100693.66;;;25.72;47.70
30347;BME280;19047;44.782;20.468;2022-07-29T04:40:49;100709.03;;;25.80;47.77
30347;BME280;19047;44.782;20.468;2022-07-29T04:44:06;100703.03;;;25.90;47.82
30347;BME280;19047;44.782;20.468;2022-07-29T04:47:37;100703.28;;;25.97;47.73
30347;BME280;19047;44.782;20.468;2022-07-29T04:50:54;100698.63;;;26.05;47.60
30347;BME280;19047;44.782;20.468;2022-07-29T04:54:24;100715.03;;;26.16;47.60
30347;BME280;19047;44.782;20.468;2022-07-29T04:57:41;100700.44;;;26.25;47.37
30347;BME280;19047;44.782;20.468;2022-07-29T05:01:11;100695.22;;;26.35;47.21
30347;BME280;19047;44.782;20.468;2022-07-29T05:04:28;100688.16;;;26.47;47.22
30347;BME280;19047;44.782;20.468;2022-07-29T05:07:58;100703.78;;;26.57;47.04
30347;BME280;19047;44.782;20.468;2022-07-29T05:11:15;100694.38;;;26.68;46.90
30347;BME280;19047;44.782;20.468;2022-07-29T05:14:45;100684.94;;;26.73;47.08
30347;BME280;19047;44.782;20.468;2022-07-29T05:18:03;100700.56;;;26.88;46.56
30347;BME280;19047;44.782;20.468;2022-07-29T05:21:32;100704.22;;;27.00;46.72
30347;BME280;19047;44.782;20.468;2022-07-29T05:24:49;100673.94;;;26.94;46.38
30347;BME280;19047;44.782;20.468;2022-07-29T05:28:20;100704.38;;;27.24;46.62
30347;BME280;19047;44.782;20.468;2022-07-29T05:31:37;100690.94;;;27.38;46.19
30347;BME280;19047;44.782;20.468;2022-07-29T05:35:08;100715.13;;;27.65;46.12
30347;BME280;19047;44.782;20.468;2022-07-29T05:38:25;100712.09;;;27.87;45.73
30347;BME280;19047;44.782;20.468;2022-07-29T05:41:55;100712.38;;;28.19;45.81
30347;BME280;19047;44.782;20.468;2022-07-29T05:45:13;100725.41;;;28.50;45.35
30347;BME280;19047;44.782;20.468;2022-07-29T05:48:43;100710.75;;;28.78;45.50
30347;BME280;19047;44.782;20.468;2022-07-29T05:52:00;100712.69;;;29.13;45.07
30347;BME280;19047;44.782;20.468;2022-07-29T05:55:30;100718.81;;;29.47;44.39
30347;BME280;19047;44.782;20.468;2022-07-29T05:58:47;100721.19;;;29.81;43.97
30347;BME280;19047;44.782;20.468;2022-07-29T06:02:16;100720.69;;;30.14;43.62
30347;BME280;19047;44.782;20.468;2022-07-29T06:05:34;100708.00;;;30.49;43.13
30347;BME280;19047;44.782;20.468;2022-07-29T06:09:04;100714.91;;;30.85;42.50
30347;BME280;19047;44.782;20.468;2022-07-29T06:12:22;100713.91;;;31.23;42.19
30347;BME280;19047;44.782;20.468;2022-07-29T06:15:52;100712.03;;;31.59;41.74
30347;BME280;19047;44.782;20.468;2022-07-29T06:19:09;100715.94;;;31.96;41.38
30347;BME280;19047;44.782;20.468;2022-07-29T06:22:40;100718.78;;;32.30;40.49
30347;BME280;19047;44.782;20.468;2022-07-29T06:25:58;100696.34;;;32.51;40.45
30347;BME280;19047;44.782;20.468;2022-07-29T06:29:28;100708.63;;;32.93;40.02
30347;BME280;19047;44.782;20.468;2022-07-29T06:32:45;100720.94;;;33.22;39.05
30347;BME280;19047;44.782;20.468;2022-07-29T06:36:16;100715.84;;;33.43;38.51
30347;BME280;19047;44.782;20.468;2022-07-29T06:39:35;100704.88;;;33.57;38.26
30347;BME280;19047;44.782;20.468;2022-07-29T06:43:05;100656.47;;;33.37;38.27
30347;BME280;19047;44.782;20.468;2022-07-29T06:46:22;100689.44;;;33.69;38.00
30347;BME280;19047;44.782;20.468;2022-07-29T06:49:53;100709.41;;;33.88;37.78
30347;BME280;19047;44.782;20.468;2022-07-29T06:53:10;100715.25;;;34.03;37.65
30347;BME280;19047;44.782;20.468;2022-07-29T06:56:41;100708.47;;;34.08;37.54
30347;BME280;19047;44.782;20.468;2022-07-29T07:00:00;100711.97;;;34.15;37.22
30347;BME280;19047;44.782;20.468;2022-07-29T07:03:31;100705.75;;;34.18;37.06
30347;BME280;19047;44.782;20.468;2022-07-29T07:06:47;100719.13;;;34.21;37.06
30347;BME280;19047;44.782;20.468;2022-07-29T07:10:18;100720.88;;;34.24;36.51
30347;BME280;19047;44.782;20.468;2022-07-29T07:13:36;100715.84;;;34.25;36.36
30347;BME280;19047;44.782;20.468;2022-07-29T07:17:06;100702.69;;;34.24;36.21
30347;BME280;19047;44.782;20.468;2022-07-29T07:20:24;100664.34;;;33.87;36.13
30347;BME280;19047;44.782;20.468;2022-07-29T07:23:54;100708.16;;;34.27;36.27
30347;BME280;19047;44.782;20.468;2022-07-29T07:27:11;100706.19;;;34.30;36.14
30347;BME280;19047;44.782;20.468;2022-07-29T07:30:41;100709.50;;;34.34;36.03
30347;BME280;19047;44.782;20.468;2022-07-29T07:33:58;100709.88;;;34.38;36.16
30347;BME280;19047;44.782;20.468;2022-07-29T07:37:28;100711.81;;;34.43;35.94
30347;BME280;19047;44.782;20.468;2022-07-29T07:40:45;100714.13;;;34.52;35.87
30347;BME280;19047;44.782;20.468;2022-07-29T07:44:15;100710.03;;;34.63;35.96
30347;BME280;19047;44.782;20.468;2022-07-29T07:47:33;100713.72;;;34.71;36.04
30347;BME280;19047;44.782;20.468;2022-07-29T07:51:03;100705.22;;;34.81;35.99
30347;BME280;19047;44.782;20.468;2022-07-29T07:54:27;100649.41;;;34.52;35.77
30347;BME280;19047;44.782;20.468;2022-07-29T07:57:59;100707.84;;;35.01;35.63
30347;BME280;19047;44.782;20.468;2022-07-29T08:01:17;100703.94;;;35.14;35.18
30347;BME280;19047;44.782;20.468;2022-07-29T08:04:46;100700.41;;;35.31;35.41
30347;BME280;19047;44.782;20.468;2022-07-29T08:08:04;100700.09;;;35.52;34.86
30347;BME280;19047;44.782;20.468;2022-07-29T08:11:34;100703.09;;;35.76;34.71
30347;BME280;19047;44.782;20.468;2022-07-29T08:14:51;100697.63;;;36.05;34.70
30347;BME280;19047;44.782;20.468;2022-07-29T08:18:20;100711.56;;;36.39;34.09
30347;BME280;19047;44.782;20.468;2022-07-29T08:21:37;100704.19;;;36.80;33.82
30347;BME280;19047;44.782;20.468;2022-07-29T08:25:07;100714.75;;;37.27;33.25
30347;BME280;19047;44.782;20.468;2022-07-29T08:28:24;100700.78;;;37.70;32.89
30347;BME280;19047;44.782;20.468;2022-07-29T08:31:56;100665.69;;;37.97;32.29
30347;BME280;19047;44.782;20.468;2022-07-29T08:35:13;100692.41;;;38.66;31.84
30347;BME280;19047;44.782;20.468;2022-07-29T08:38:44;100683.22;;;39.09;31.03
30347;BME280;19047;44.782;20.468;2022-07-29T08:42:01;100701.91;;;39.73;30.58
30347;BME280;19047;44.782;20.468;2022-07-29T08:45:42;100680.34;;;40.19;29.95
30347;BME280;19047;44.782;20.468;2022-07-29T08:49:01;100704.75;;;40.73;29.43
30347;BME280;19047;44.782;20.468;2022-07-29T08:52:34;100694.53;;;41.17;28.82
30347;BME280;19047;44.782;20.468;2022-07-29T08:55:53;100694.78;;;41.54;28.50
30347;BME280;19047;44.782;20.468;2022-07-29T08:59:24;100701.25;;;41.85;27.93
30347;BME280;19047;44.782;20.468;2022-07-29T09:02:44;100700.91;;;42.14;27.75
30347;BME280;19047;44.782;20.468;2022-07-29T09:06:18;100691.94;;;42.47;27.65
30347;BME280;19047;44.782;20.468;2022-07-29T09:09:36;100688.19;;;42.82;27.21
30347;BME280;19047;44.782;20.468;2022-07-29T09:13:07;100691.25;;;43.21;26.80
30347;BME280;19047;44.782;20.468;2022-07-29T09:16:24;100686.94;;;43.61;26.34
30347;BME280;19047;44.782;20.468;2022-07-29T09:19:56;100677.88;;;43.96;25.55
30347;BME280;19047;44.782;20.468;2022-07-29T09:23:25;100679.75;;;44.30;25.44
30347;BME280;19047;44.782;20.468;2022-07-29T09:26:55;100678.56;;;44.63;24.82
30347;BME280;19047;44.782;20.468;2022-07-29T09:30:14;100673.28;;;44.89;24.86
30347;BME280;19047;44.782;20.468;2022-07-29T09:33:49;100681.00;;;45.09;24.74
30347;BME280;19047;44.782;20.468;2022-07-29T09:37:09;100671.53;;;45.27;24.35
30347;BME280;19047;44.782;20.468;2022-07-29T09:40:40;100668.63;;;45.42;24.34
30347;BME280;19047;44.782;20.468;2022-07-29T09:43:58;100663.75;;;45.49;24.06
30347;BME280;19047;44.782;20.468;2022-07-29T09:47:45;100616.34;;;45.16;24.02
30347;BME280;19047;44.782;20.468;2022-07-29T09:51:03;100618.63;;;45.17;23.95
30347;BME280;19047;44.782;20.468;2022-07-29T09:54:37;100653.44;;;45.34;23.80
30347;BME280;19047;44.782;20.468;2022-07-29T09:58:18;100659.63;;;45.11;23.88
30347;BME280;19047;44.782;20.468;2022-07-29T10:01:36;100645.78;;;45.00;24.07
30347;BME280;19047;44.782;20.468;2022-07-29T10:05:16;100638.56;;;45.03;24.05
30347;BME280;19047;44.782;20.468;2022-07-29T10:08:32;100646.31;;;45.10;23.88
30347;BME280;19047;44.782;20.468;2022-07-29T10:12:11;100629.69;;;45.17;23.95
30347;BME280;19047;44.782;20.468;2022-07-29T10:15:32;100619.69;;;45.24;23.66
30347;BME280;19047;44.782;20.468;2022-07-29T10:19:03;100627.59;;;45.19;23.64
30347;BME280;19047;44.782;20.468;2022-07-29T10:22:21;100628.59;;;45.10;23.59
30347;BME280;19047;44.782;20.468;2022-07-29T10:25:52;100620.41;;;45.08;23.51
30347;BME280;19047;44.782;20.468;2022-07-29T10:29:09;100576.22;;;44.81;23.43
30347;BME280;19047;44.782;20.468;2022-07-29T10:36:15;100609.31;;;45.23;23.38
30347;BME280;19047;44.782;20.468;2022-07-29T10:43:17;100592.28;;;45.37;23.26
30347;BME280;19047;44.782;20.468;2022-07-29T10:46:49;100600.00;;;45.44;23.26
30347;BME280;19047;44.782;20.468;2022-07-29T10:50:07;100586.25;;;45.35;23.24
30347;BME280;19047;44.782;20.468;2022-07-29T11:00:46;100574.09;;;44.97;23.59
30347;BME280;19047;44.782;20.468;2022-07-29T11:04:03;100575.38;;;44.79;23.60
30347;BME280;19047;44.782;20.468;2022-07-29T11:07:35;100536.69;;;44.43;23.89
30347;BME280;19047;44.782;20.468;2022-07-29T11:11:35;100554.31;;;44.57;23.78
30347;BME280;19047;44.782;20.468;2022-07-29T11:14:59;100558.50;;;44.52;23.76
30347;BME280;19047;44.782;20.468;2022-07-29T11:18:18;100557.78;;;44.37;23.75
30347;BME280;19047;44.782;20.468;2022-07-29T11:21:49;100549.84;;;44.13;23.81
30347;BME280;19047;44.782;20.468;2022-07-29T11:25:16;100532.59;;;43.66;24.05
30347;BME280;19047;44.782;20.468;2022-07-29T11:29:32;100526.63;;;43.39;23.85
30347;BME280;19047;44.782;20.468;2022-07-29T11:32:24;100549.28;;;43.22;23.94
30347;BME280;19047;44.782;20.468;2022-07-29T11:36:09;100541.03;;;42.93;24.47
30347;BME280;19047;44.782;20.468;2022-07-29T11:39:34;100540.75;;;42.64;24.71
30347;BME280;19047;44.782;20.468;2022-07-29T11:43:04;100535.31;;;42.47;24.91
30347;BME280;19047;44.782;20.468;2022-07-29T11:50:13;100523.78;;;42.14;24.69
30347;BME280;19047;44.782;20.468;2022-07-29T11:53:30;100536.03;;;42.22;25.06
30347;BME280;19047;44.782;20.468;2022-07-29T11:57:01;100543.13;;;42.31;25.07
30347;BME280;19047;44.782;20.468;2022-07-29T12:04:04;100535.16;;;42.56;24.80
30347;BME280;19047;44.782;20.468;2022-07-29T12:07:30;100539.97;;;42.63;24.83
30347;BME280;19047;44.782;20.468;2022-07-29T12:11:02;100536.06;;;42.59;25.01
30347;BME280;19047;44.782;20.468;2022-07-29T12:14:31;100539.56;;;42.44;25.07
30347;BME280;19047;44.782;20.468;2022-07-29T12:18:09;100518.19;;;42.06;24.89
30347;BME280;19047;44.782;20.468;2022-07-29T12:21:27;100507.22;;;41.72;25.25
30347;BME280;19047;44.782;20.468;2022-07-29T12:25:02;100532.50;;;41.65;25.38
30347;BME280;19047;44.782;20.468;2022-07-29T12:28:18;100533.91;;;41.41;25.74
30347;BME280;19047;44.782;20.468;2022-07-29T12:31:53;100505.09;;;41.04;25.93
30347;BME280;19047;44.782;20.468;2022-07-29T12:35:15;100524.75;;;41.02;25.94
30347;BME280;19047;44.782;20.468;2022-07-29T12:38:47;100495.03;;;40.63;26.37
30347;BME280;19047;44.782;20.468;2022-07-29T12:42:15;100507.25;;;40.59;26.07
30347;BME280;19047;44.782;20.468;2022-07-29T12:45:48;100484.91;;;40.21;26.41
30347;BME280;19047;44.782;20.468;2022-07-29T12:49:05;100514.53;;;40.16;26.78
30347;BME280;19047;44.782;20.468;2022-07-29T12:52:45;100515.16;;;39.93;26.79
30347;BME280;19047;44.782;20.468;2022-07-29T12:56:15;100494.50;;;39.69;26.92
30347;BME280;19047;44.782;20.468;2022-07-29T12:59:32;100500.44;;;39.50;27.56
30347;BME280;19047;44.782;20.468;2022-07-29T13:03:03;100494.97;;;39.35;27.26
30347;BME280;19047;44.782;20.468;2022-07-29T13:07:02;100497.78;;;39.23;27.41
30347;BME280;19047;44.782;20.468;2022-07-29T13:10:14;100486.75;;;39.12;27.66
30347;BME280;19047;44.782;20.468;2022-07-29T13:13:30;100436.97;;;38.72;28.02
30347;BME280;19047;44.782;20.468;2022-07-29T13:17:03;100488.78;;;39.00;27.70
30347;BME280;19047;44.782;20.468;2022-07-29T13:20:25;100485.50;;;38.96;28.03
30347;BME280;19047;44.782;20.468;2022-07-29T13:23:56;100458.94;;;38.72;27.83
30347;BME280;19047;44.782;20.468;2022-07-29T13:27:26;100478.34;;;38.78;27.81
30347;BME280;19047;44.782;20.468;2022-07-29T13:30:58;100449.91;;;38.49;28.27
30347;BME280;19047;44.782;20.468;2022-07-29T13:34:15;100449.28;;;38.41;27.92
30347;BME280;19047;44.782;20.468;2022-07-29T13:37:48;100463.31;;;38.52;28.37
30347;BME280;19047;44.782;20.468;2022-07-29T13:41:05;100457.59;;;38.54;28.29
30347;BME280;19047;44.782;20.468;2022-07-29T13:44:36;100415.31;;;38.36;28.12
30347;BME280;19047;44.782;20.468;2022-07-29T13:47:55;100457.06;;;38.87;27.83
30347;BME280;19047;44.782;20.468;2022-07-29T13:51:31;100444.91;;;39.00;27.68
30347;BME280;19047;44.782;20.468;2022-07-29T13:54:48;100442.19;;;39.23;27.50
30347;BME280;19047;44.782;20.468;2022-07-29T13:58:19;100421.00;;;39.44;27.73
30347;BME280;19047;44.782;20.468;2022-07-29T14:01:36;100437.41;;;40.01;27.03
30347;BME280;19047;44.782;20.468;2022-07-29T14:05:13;100440.44;;;40.58;26.62
30347;BME280;19047;44.782;20.468;2022-07-29T14:08:43;100416.19;;;41.02;26.42
30347;BME280;19047;44.782;20.468;2022-07-29T14:12:14;100414.66;;;41.59;25.70
30347;BME280;19047;44.782;20.468;2022-07-29T14:15:31;100436.31;;;42.26;25.48
30347;BME280;19047;44.782;20.468;2022-07-29T14:19:02;100437.34;;;42.81;24.45
30347;BME280;19047;44.782;20.468;2022-07-29T14:22:20;100439.16;;;43.41;24.22
30347;BME280;19047;44.782;20.468;2022-07-29T14:25:50;100425.81;;;43.95;24.09
30347;BME280;19047;44.782;20.468;2022-07-29T14:29:07;100423.97;;;44.45;23.22
30347;BME280;19047;44.782;20.468;2022-07-29T14:32:37;100427.06;;;44.94;23.05
30347;BME280;19047;44.782;20.468;2022-07-29T14:35:56;100429.25;;;45.40;22.76
30347;BME280;19047;44.782;20.468;2022-07-29T14:39:27;100436.91;;;45.79;22.20
30347;BME280;19047;44.782;20.468;2022-07-29T14:42:44;100422.88;;;46.13;21.79
30347;BME280;19047;44.782;20.468;2022-07-29T14:46:14;100424.06;;;46.41;21.55
30347;BME280;19047;44.782;20.468;2022-07-29T14:49:31;100429.22;;;46.59;21.39
30347;BME280;19047;44.782;20.468;2022-07-29T14:53:01;100419.91;;;46.66;20.82
30347;BME280;19047;44.782;20.468;2022-07-29T14:56:18;100423.88;;;46.55;21.08
30347;BME280;19047;44.782;20.468;2022-07-29T14:59:49;100420.63;;;46.29;21.08
30347;BME280;19047;44.782;20.468;2022-07-29T15:03:06;100414.75;;;45.96;21.19
30347;BME280;19047;44.782;20.468;2022-07-29T15:06:36;100408.56;;;45.56;21.59
30347;BME280;19047;44.782;20.468;2022-07-29T15:09:53;100397.75;;;45.14;21.66
30347;BME280;19047;44.782;20.468;2022-07-29T15:13:24;100402.28;;;44.69;22.02
30347;BME280;19047;44.782;20.468;2022-07-29T15:16:42;100390.47;;;44.24;22.28
30347;BME280;19047;44.782;20.468;2022-07-29T15:20:13;100363.25;;;43.67;22.87
30347;BME280;19047;44.782;20.468;2022-07-29T15:23:30;100380.38;;;43.43;22.97
30347;BME280;19047;44.782;20.468;2022-07-29T15:27:01;100356.59;;;42.84;23.51
30347;BME280;19047;44.782;20.468;2022-07-29T15:30:17;100381.78;;;42.62;23.70
30347;BME280;19047;44.782;20.468;2022-07-29T15:33:48;100380.34;;;42.24;24.09
30347;BME280;19047;44.782;20.468;2022-07-29T15:37:05;100375.38;;;41.89;24.15
30347;BME280;19047;44.782;20.468;2022-07-29T15:40:36;100369.59;;;41.54;24.46
30347;BME280;19047;44.782;20.468;2022-07-29T15:43:53;100368.25;;;41.21;24.86
30347;BME280;19047;44.782;20.468;2022-07-29T15:47:23;100361.72;;;40.87;25.18
30347;BME280;19047;44.782;20.468;2022-07-29T15:50:40;100328.25;;;40.34;25.47
30347;BME280;19047;44.782;20.468;2022-07-29T15:54:11;100355.59;;;40.27;25.99
30347;BME280;19047;44.782;20.468;2022-07-29T15:57:29;100352.94;;;39.98;26.31
30347;BME280;19047;44.782;20.468;2022-07-29T16:01:00;100351.91;;;39.72;26.38
30347;BME280;19047;44.782;20.468;2022-07-29T16:04:17;100347.47;;;39.50;26.16
30347;BME280;19047;44.782;20.468;2022-07-29T16:07:48;100313.84;;;39.08;26.65
30347;BME280;19047;44.782;20.468;2022-07-29T16:11:05;100340.53;;;39.02;27.20
30347;BME280;19047;44.782;20.468;2022-07-29T16:14:35;100310.47;;;38.71;27.32
30347;BME280;19047;44.782;20.468;2022-07-29T16:17:52;100311.47;;;38.54;28.18
30347;BME280;19047;44.782;20.468;2022-07-29T16:21:23;100352.22;;;38.52;28.14
30347;BME280;19047;44.782;20.468;2022-07-29T16:24:40;100347.97;;;38.34;28.42
30347;BME280;19047;44.782;20.468;2022-07-29T16:28:11;100354.00;;;38.17;28.52
30347;BME280;19047;44.782;20.468;2022-07-29T16:31:28;100349.84;;;38.00;28.99
30347;BME280;19047;44.782;20.468;2022-07-29T16:34:58;100344.16;;;37.83;29.58
30347;BME280;19047;44.782;20.468;2022-07-29T16:38:16;100360.44;;;37.67;29.62
30347;BME280;19047;44.782;20.468;2022-07-29T16:41:46;100362.09;;;37.51;29.71
30347;BME280;19047;44.782;20.468;2022-07-29T16:45:03;100362.38;;;37.36;30.36
30347;BME280;19047;44.782;20.468;2022-07-29T16:48:34;100356.84;;;37.20;30.11
30347;BME280;19047;44.782;20.468;2022-07-29T16:51:54;100363.66;;;37.06;30.41
30347;BME280;19047;44.782;20.468;2022-07-29T16:55:25;100369.13;;;36.92;30.46
30347;BME280;19047;44.782;20.468;2022-07-29T16:58:56;100366.47;;;36.77;30.58
30347;BME280;19047;44.782;20.468;2022-07-29T17:02:13;100369.00;;;36.63;30.63
30347;BME280;19047;44.782;20.468;2022-07-29T17:05:43;100354.28;;;36.34;30.53
30347;BME280;19047;44.782;20.468;2022-07-29T17:09:01;100382.94;;;36.38;30.79
30347;BME280;19047;44.782;20.468;2022-07-29T17:12:41;100381.16;;;36.25;31.09
30347;BME280;19047;44.782;20.468;2022-07-29T17:15:58;100338.88;;;35.72;31.31
30347;BME280;19047;44.782;20.468;2022-07-29T17:19:32;100378.19;;;35.98;31.31
30347;BME280;19047;44.782;20.468;2022-07-29T17:22:49;100367.22;;;35.72;31.53
30347;BME280;19047;44.782;20.468;2022-07-29T17:26:19;100384.50;;;35.70;31.59
30347;BME280;19047;44.782;20.468;2022-07-29T17:29:36;100389.13;;;35.56;32.18
30347;BME280;19047;44.782;20.468;2022-07-29T17:33:07;100398.94;;;35.43;32.23
30347;BME280;19047;44.782;20.468;2022-07-29T17:36:24;100393.44;;;35.30;32.42
30347;BME280;19047;44.782;20.468;2022-07-29T17:39:55;100388.53;;;35.15;32.89
30347;BME280;19047;44.782;20.468;2022-07-29T17:43:12;100397.53;;;35.02;33.08
30347;BME280;19047;44.782;20.468;2022-07-29T17:46:43;100403.66;;;34.89;33.45
30347;BME280;19047;44.782;20.468;2022-07-29T17:50:00;100406.06;;;34.75;33.52
30347;BME280;19047;44.782;20.468;2022-07-29T17:53:31;100398.34;;;34.62;33.61
30347;BME280;19047;44.782;20.468;2022-07-29T17:56:48;100397.88;;;34.49;33.52
30347;BME280;19047;44.782;20.468;2022-07-29T18:00:19;100395.22;;;34.35;33.77
30347;BME280;19047;44.782;20.468;2022-07-29T18:03:37;100402.63;;;34.21;34.35
30347;BME280;19047;44.782;20.468;2022-07-29T18:07:07;100397.81;;;34.08;34.61
30347;BME280;19047;44.782;20.468;2022-07-29T18:10:24;100398.09;;;33.95;34.78
30347;BME280;19047;44.782;20.468;2022-07-29T18:13:54;100394.66;;;33.82;34.98